Ellet, Ohio
Current Conditions -  °F | °C
As of 11:54 AM on Sunday 21 Dec 2014 (Local Time) from KAKR Reporting Station
Overcast Overcast  
Wind Chill: 26°   Ceiling: 2200
Heat Index: 31°   Visibility: 7mi
Dew Point: 21°   Wind: 5mph
Humidity: 67%   Direction: 160°SSE
Pressure: 30.29"   Gusts: NA
Location:  41.0159°N, 81.4403°W
Report Text: KAKR 211654Z AUTO 16004KT 7SM OVC022 M01/M06 A3029 RMK AO2 SLP269 T10061061 $
Loading
Personal Weather Stations






























Interactive Weather Map New forecast layout! Learn more

10-Day Weather Forecast

Advertisements
Track Severe Weather on mobile